sensor_id;sensor_type;location;lat;lon;timestamp;pressure;altitude;pressure_sealevel;temperature;humidity
3254;BME280;1639;42.804;23.342;2023-04-25T00:02:20;72529.72;;;-148.52;100.00
3254;BME280;1639;42.804;23.342;2023-04-25T00:04:45;72521.44;;;-148.52;100.00
3254;BME280;1639;42.804;23.342;2023-04-25T00:07:11;72533.84;;;-148.52;100.00
3254;BME280;1639;42.804;23.342;2023-04-25T00:09:37;72531.78;;;-148.52;100.00
3254;BME280;1639;42.804;23.342;2023-04-25T00:12:03;72529.72;;;-148.52;100.00
3254;BME280;1639;42.804;23.342;2023-04-25T00:14:29;72521.44;;;-148.52;100.00
3254;BME280;1639;42.804;23.342;2023-04-25T00:16:54;72529.72;;;-148.52;100.00
3254;BME280;1639;42.804;23.342;2023-04-25T00:19:20;72519.38;;;-148.52;100.00
3254;BME280;1639;42.804;23.342;2023-04-25T00:21:45;72525.56;;;-148.52;100.00
3254;BME280;1639;42.804;23.342;2023-04-25T00:24:12;72521.44;;;-148.52;100.00
3254;BME280;1639;42.804;23.342;2023-04-25T00:26:37;72529.72;;;-148.52;100.00
3254;BME280;1639;42.804;23.342;2023-04-25T00:29:03;72537.97;;;-148.52;100.00
3254;BME280;1639;42.804;23.342;2023-04-25T00:31:28;72542.13;;;-148.52;100.00
3254;BME280;1639;42.804;23.342;2023-04-25T00:33:54;72525.56;;;-148.52;100.00
3254;BME280;1639;42.804;23.342;2023-04-25T00:36:20;72513.16;;;-148.52;100.00
3254;BME280;1639;42.804;23.342;2023-04-25T00:38:45;72496.63;;;-148.52;100.00
3254;BME280;1639;42.804;23.342;2023-04-25T00:41:11;72484.22;;;-148.52;100.00
3254;BME280;1639;42.804;23.342;2023-04-25T00:43:37;72475.94;;;-148.52;100.00
3254;BME280;1639;42.804;23.342;2023-04-25T00:46:03;72471.81;;;-148.52;100.00
3254;BME280;1639;42.804;23.342;2023-04-25T00:48:28;72459.41;;;-148.52;100.00
3254;BME280;1639;42.804;23.342;2023-04-25T00:50:57;72461.47;;;-148.52;100.00
3254;BME280;1639;42.804;23.342;2023-04-25T00:53:24;72471.81;;;-148.52;100.00
3254;BME280;1639;42.804;23.342;2023-04-25T00:55:50;72453.19;;;-148.52;100.00
3254;BME280;1639;42.804;23.342;2023-04-25T00:58:19;72459.41;;;-148.52;100.00
3254;BME280;1639;42.804;23.342;2023-04-25T01:00:46;72459.41;;;-148.52;100.00
3254;BME280;1639;42.804;23.342;2023-04-25T01:03:13;72461.47;;;-148.52;100.00
3254;BME280;1639;42.804;23.342;2023-04-25T01:05:40;72453.19;;;-148.52;100.00
3254;BME280;1639;42.804;23.342;2023-04-25T01:08:07;72459.41;;;-148.52;100.00
3254;BME280;1639;42.804;23.342;2023-04-25T01:10:32;72457.34;;;-148.52;100.00
3254;BME280;1639;42.804;23.342;2023-04-25T01:12:57;72451.13;;;-148.52;100.00
3254;BME280;1639;42.804;23.342;2023-04-25T01:15:23;72449.06;;;-148.52;100.00
3254;BME280;1639;42.804;23.342;2023-04-25T01:17:49;72451.13;;;-148.52;100.00
3254;BME280;1639;42.804;23.342;2023-04-25T01:20:15;72442.84;;;-148.52;100.00
3254;BME280;1639;42.804;23.342;2023-04-25T01:22:41;72451.13;;;-148.52;100.00
3254;BME280;1639;42.804;23.342;2023-04-25T01:25:07;72471.81;;;-148.52;100.00
3254;BME280;1639;42.804;23.342;2023-04-25T01:27:33;72490.41;;;-148.52;100.00
3254;BME280;1639;42.804;23.342;2023-04-25T01:29:59;72480.09;;;-148.52;100.00
3254;BME280;1639;42.804;23.342;2023-04-25T01:32:25;72461.47;;;-148.52;100.00
3254;BME280;1639;42.804;23.342;2023-04-25T01:34:51;72461.47;;;-148.52;100.00
3254;BME280;1639;42.804;23.342;2023-04-25T01:37:16;72453.19;;;-148.52;100.00
3254;BME280;1639;42.804;23.342;2023-04-25T01:39:42;72447.00;;;-148.52;100.00
3254;BME280;1639;42.804;23.342;2023-04-25T01:42:08;72442.84;;;-148.52;100.00
3254;BME280;1639;42.804;23.342;2023-04-25T01:44:33;72449.06;;;-148.52;100.00
3254;BME280;1639;42.804;23.342;2023-04-25T01:46:58;72473.88;;;-148.52;100.00
3254;BME280;1639;42.804;23.342;2023-04-25T01:49:24;72482.16;;;-148.52;100.00
3254;BME280;1639;42.804;23.342;2023-04-25T01:51:49;72488.34;;;-148.52;100.00
3254;BME280;1639;42.804;23.342;2023-04-25T01:54:15;72494.56;;;-148.52;100.00
3254;BME280;1639;42.804;23.342;2023-04-25T01:56:40;72496.63;;;-148.52;100.00
3254;BME280;1639;42.804;23.342;2023-04-25T01:59:06;72494.56;;;-148.52;100.00
3254;BME280;1639;42.804;23.342;2023-04-25T02:01:32;72498.69;;;-148.52;100.00
3254;BME280;1639;42.804;23.342;2023-04-25T02:03:57;72504.91;;;-148.52;100.00
3254;BME280;1639;42.804;23.342;2023-04-25T02:06:23;72506.97;;;-148.52;100.00
3254;BME280;1639;42.804;23.342;2023-04-25T02:08:48;72519.38;;;-148.52;100.00
3254;BME280;1639;42.804;23.342;2023-04-25T02:11:13;72515.22;;;-148.52;100.00
3254;BME280;1639;42.804;23.342;2023-04-25T02:13:39;72525.56;;;-148.52;100.00
3254;BME280;1639;42.804;23.342;2023-04-25T02:16:04;72519.38;;;-148.52;100.00
3254;BME280;1639;42.804;23.342;2023-04-25T02:18:30;72525.56;;;-148.52;100.00
3254;BME280;1639;42.804;23.342;2023-04-25T02:20:58;72533.84;;;-148.52;100.00
3254;BME280;1639;42.804;23.342;2023-04-25T02:23:24;72519.38;;;-148.52;100.00
3254;BME280;1639;42.804;23.342;2023-04-25T02:25:50;72529.72;;;-148.52;100.00
3254;BME280;1639;42.804;23.342;2023-04-25T02:28:15;72531.78;;;-148.52;100.00
3254;BME280;1639;42.804;23.342;2023-04-25T02:30:41;72531.78;;;-148.52;100.00
3254;BME280;1639;42.804;23.342;2023-04-25T02:33:06;72535.91;;;-148.52;100.00
3254;BME280;1639;42.804;23.342;2023-04-25T02:35:31;72537.97;;;-148.52;100.00
3254;BME280;1639;42.804;23.342;2023-04-25T02:37:57;72542.13;;;-148.52;100.00
3254;BME280;1639;42.804;23.342;2023-04-25T02:40:22;72546.25;;;-148.52;100.00
3254;BME280;1639;42.804;23.342;2023-04-25T02:42:48;72552.47;;;-148.52;100.00
3254;BME280;1639;42.804;23.342;2023-04-25T02:45:14;72552.47;;;-148.52;100.00
3254;BME280;1639;42.804;23.342;2023-04-25T02:47:39;72562.81;;;-148.52;100.00
3254;BME280;1639;42.804;23.342;2023-04-25T02:50:05;72577.28;;;-148.52;100.00
3254;BME280;1639;42.804;23.342;2023-04-25T02:52:31;72573.13;;;-148.52;100.00
3254;BME280;1639;42.804;23.342;2023-04-25T02:54:56;72569.00;;;-148.52;100.00
3254;BME280;1639;42.804;23.342;2023-04-25T02:57:22;72560.72;;;-148.52;100.00
3254;BME280;1639;42.804;23.342;2023-04-25T02:59:47;72558.66;;;-148.52;100.00
3254;BME280;1639;42.804;23.342;2023-04-25T03:02:12;72579.34;;;-148.52;100.00
3254;BME280;1639;42.804;23.342;2023-04-25T03:04:38;72587.63;;;-148.52;100.00
3254;BME280;1639;42.804;23.342;2023-04-25T03:07:04;72608.28;;;-148.52;100.00
3254;BME280;1639;42.804;23.342;2023-04-25T03:09:30;72612.44;;;-148.52;100.00
3254;BME280;1639;42.804;23.342;2023-04-25T03:11:55;72604.16;;;-148.52;100.00
3254;BME280;1639;42.804;23.342;2023-04-25T03:14:21;72608.28;;;-148.52;100.00
3254;BME280;1639;42.804;23.342;2023-04-25T03:16:46;72604.16;;;-148.52;100.00
3254;BME280;1639;42.804;23.342;2023-04-25T03:19:11;72595.88;;;-148.52;100.00
3254;BME280;1639;42.804;23.342;2023-04-25T03:21:37;72604.16;;;-148.52;100.00
3254;BME280;1639;42.804;23.342;2023-04-25T03:24:04;72626.91;;;-148.52;100.00
3254;BME280;1639;42.804;23.342;2023-04-25T03:26:30;72643.44;;;-148.52;100.00
3254;BME280;1639;42.804;23.342;2023-04-25T03:28:55;72655.84;;;-148.52;100.00
3254;BME280;1639;42.804;23.342;2023-04-25T03:31:21;72651.72;;;-148.52;100.00
3254;BME280;1639;42.804;23.342;2023-04-25T03:33:47;72641.38;;;-148.52;100.00
3254;BME280;1639;42.804;23.342;2023-04-25T03:36:12;72653.78;;;-148.52;100.00
3254;BME280;1639;42.804;23.342;2023-04-25T03:38:38;72680.69;;;-148.52;100.00
3254;BME280;1639;42.804;23.342;2023-04-25T03:41:03;72678.59;;;-148.52;100.00
3254;BME280;1639;42.804;23.342;2023-04-25T03:43:29;72682.75;;;-148.52;100.00
3254;BME280;1639;42.804;23.342;2023-04-25T03:45:54;72672.41;;;-148.52;100.00
3254;BME280;1639;42.804;23.342;2023-04-25T03:48:20;72662.06;;;-148.52;100.00
3254;BME280;1639;42.804;23.342;2023-04-25T03:50:47;72657.94;;;-148.52;100.00
3254;BME280;1639;42.804;23.342;2023-04-25T03:53:12;72645.53;;;-148.52;100.00
3254;BME280;1639;42.804;23.342;2023-04-25T03:55:38;72647.59;;;-148.52;100.00
3254;BME280;1639;42.804;23.342;2023-04-25T03:58:03;72670.34;;;-148.52;100.00
3254;BME280;1639;42.804;23.342;2023-04-25T04:00:29;72655.84;;;-148.52;100.00
3254;BME280;1639;42.804;23.342;2023-04-25T04:02:54;72643.44;;;-148.52;100.00
3254;BME280;1639;42.804;23.342;2023-04-25T04:05:19;72622.78;;;-148.52;100.00
3254;BME280;1639;42.804;23.342;2023-04-25T04:07:45;72604.16;;;-148.52;100.00
3254;BME280;1639;42.804;23.342;2023-04-25T04:10:10;72595.88;;;-148.52;100.00
3254;BME280;1639;42.804;23.342;2023-04-25T04:12:36;72593.81;;;-148.52;100.00
3254;BME280;1639;42.804;23.342;2023-04-25T04:15:03;72579.34;;;-148.52;100.00
3254;BME280;1639;42.804;23.342;2023-04-25T04:17:29;72560.72;;;-148.52;100.00
3254;BME280;1639;42.804;23.342;2023-04-25T04:19:54;72542.13;;;-148.52;100.00
3254;BME280;1639;42.804;23.342;2023-04-25T04:22:20;72542.13;;;-148.52;100.00
3254;BME280;1639;42.804;23.342;2023-04-25T04:24:45;72535.91;;;-148.52;100.00
3254;BME280;1639;42.804;23.342;2023-04-25T04:27:11;72537.97;;;-148.52;100.00
3254;BME280;1639;42.804;23.342;2023-04-25T04:29:38;72540.06;;;-148.52;100.00
3254;BME280;1639;42.804;23.342;2023-04-25T04:32:03;72544.19;;;-148.52;100.00
3254;BME280;1639;42.804;23.342;2023-04-25T04:34:29;72552.47;;;-148.52;100.00
3254;BME280;1639;42.804;23.342;2023-04-25T04:36:54;72554.53;;;-148.52;100.00
3254;BME280;1639;42.804;23.342;2023-04-25T04:39:20;72546.25;;;-148.52;100.00
3254;BME280;1639;42.804;23.342;2023-04-25T04:41:46;72537.97;;;-148.52;100.00
3254;BME280;1639;42.804;23.342;2023-04-25T04:44:11;72550.38;;;-148.52;100.00
3254;BME280;1639;42.804;23.342;2023-04-25T04:46:37;72571.06;;;-148.52;100.00
3254;BME280;1639;42.804;23.342;2023-04-25T04:49:08;72566.94;;;-148.52;100.00
3254;BME280;1639;42.804;23.342;2023-04-25T04:51:33;72550.38;;;-148.52;100.00
3254;BME280;1639;42.804;23.342;2023-04-25T04:53:59;72535.91;;;-148.52;100.00
3254;BME280;1639;42.804;23.342;2023-04-25T04:56:30;72517.31;;;-148.52;100.00
3254;BME280;1639;42.804;23.342;2023-04-25T04:58:58;72496.63;;;-148.52;100.00
3254;BME280;1639;42.804;23.342;2023-04-25T05:01:24;72473.88;;;-148.52;100.00
3254;BME280;1639;42.804;23.342;2023-04-25T05:03:50;72455.25;;;-148.52;100.00
3254;BME280;1639;42.804;23.342;2023-04-25T05:06:17;72442.84;;;-148.52;100.00
3254;BME280;1639;42.804;23.342;2023-04-25T05:08:42;72426.31;;;-148.52;100.00
3254;BME280;1639;42.804;23.342;2023-04-25T05:11:08;72415.97;;;-148.52;100.00
3254;BME280;1639;42.804;23.342;2023-04-25T05:13:33;72397.38;;;-148.52;100.00
3254;BME280;1639;42.804;23.342;2023-04-25T05:15:58;72389.09;;;-148.52;100.00
3254;BME280;1639;42.804;23.342;2023-04-25T05:18:24;72380.81;;;-148.52;100.00
3254;BME280;1639;42.804;23.342;2023-04-25T05:20:50;72360.13;;;-148.52;100.00
3254;BME280;1639;42.804;23.342;2023-04-25T05:23:15;72347.72;;;-148.52;100.00
3254;BME280;1639;42.804;23.342;2023-04-25T05:25:41;72327.06;;;-148.52;100.00
3254;BME280;1639;42.804;23.342;2023-04-25T05:28:06;72314.66;;;-148.52;100.00
3254;BME280;1639;42.804;23.342;2023-04-25T05:30:32;72302.25;;;-148.52;100.00
3254;BME280;1639;42.804;23.342;2023-04-25T05:32:58;72298.09;;;-148.52;100.00
3254;BME280;1639;42.804;23.342;2023-04-25T05:35:24;72287.75;;;-148.52;100.00
3254;BME280;1639;42.804;23.342;2023-04-25T05:37:49;72277.44;;;-148.52;100.00
3254;BME280;1639;42.804;23.342;2023-04-25T05:40:15;72271.22;;;-148.52;100.00
3254;BME280;1639;42.804;23.342;2023-04-25T05:42:40;72265.03;;;-148.52;100.00
3254;BME280;1639;42.804;23.342;2023-04-25T05:45:06;72256.75;;;-148.52;100.00
3254;BME280;1639;42.804;23.342;2023-04-25T05:47:31;72252.63;;;-148.52;100.00
3254;BME280;1639;42.804;23.342;2023-04-25T05:49:57;72258.81;;;-148.52;100.00
3254;BME280;1639;42.804;23.342;2023-04-25T05:52:22;72275.34;;;-148.52;100.00
3254;BME280;1639;42.804;23.342;2023-04-25T05:54:47;72283.63;;;-148.52;100.00
3254;BME280;1639;42.804;23.342;2023-04-25T05:57:23;72289.84;;;-148.52;100.00
3254;BME280;1639;42.804;23.342;2023-04-25T05:59:48;72289.84;;;-148.52;100.00
3254;BME280;1639;42.804;23.342;2023-04-25T06:02:14;72281.56;;;-148.52;100.00
3254;BME280;1639;42.804;23.342;2023-04-25T06:04:39;72273.28;;;-148.52;100.00
3254;BME280;1639;42.804;23.342;2023-04-25T06:07:05;72273.28;;;-148.52;100.00
3254;BME280;1639;42.804;23.342;2023-04-25T06:09:30;72256.75;;;-148.52;100.00
3254;BME280;1639;42.804;23.342;2023-04-25T06:11:55;72262.94;;;-148.52;100.00
3254;BME280;1639;42.804;23.342;2023-04-25T06:14:21;72273.28;;;-148.52;100.00
3254;BME280;1639;42.804;23.342;2023-04-25T06:16:46;72275.34;;;-148.52;100.00
3254;BME280;1639;42.804;23.342;2023-04-25T06:19:11;72262.94;;;-148.52;100.00
3254;BME280;1639;42.804;23.342;2023-04-25T06:21:37;72265.03;;;-148.52;100.00
3254;BME280;1639;42.804;23.342;2023-04-25T06:24:02;72262.94;;;-148.52;100.00
3254;BME280;1639;42.804;23.342;2023-04-25T06:26:28;72271.22;;;-148.52;100.00
3254;BME280;1639;42.804;23.342;2023-04-25T06:28:53;72267.09;;;-148.52;100.00
3254;BME280;1639;42.804;23.342;2023-04-25T06:31:18;72279.50;;;-148.52;100.00
3254;BME280;1639;42.804;23.342;2023-04-25T06:33:44;72254.69;;;-148.52;100.00
3254;BME280;1639;42.804;23.342;2023-04-25T06:36:09;72240.22;;;-148.52;100.00
3254;BME280;1639;42.804;23.342;2023-04-25T06:38:35;72223.66;;;-148.52;100.00
3254;BME280;1639;42.804;23.342;2023-04-25T06:41:00;72211.25;;;-148.52;100.00
3254;BME280;1639;42.804;23.342;2023-04-25T06:43:26;72219.53;;;-148.52;100.00
3254;BME280;1639;42.804;23.342;2023-04-25T06:45:51;72209.19;;;-148.52;100.00
3254;BME280;1639;42.804;23.342;2023-04-25T06:48:17;72203.00;;;-148.52;100.00
3254;BME280;1639;42.804;23.342;2023-04-25T06:50:42;72194.72;;;-148.52;100.00
3254;BME280;1639;42.804;23.342;2023-04-25T06:53:07;72207.13;;;-148.52;100.00
3254;BME280;1639;42.804;23.342;2023-04-25T06:55:33;72174.03;;;-148.52;100.00
3254;BME280;1639;42.804;23.342;2023-04-25T06:58:00;72136.81;;;-148.52;100.00
3254;BME280;1639;42.804;23.342;2023-04-25T07:00:25;72136.81;;;-148.52;100.00
3254;BME280;1639;42.804;23.342;2023-04-25T07:02:50;72116.13;;;-148.52;100.00
3254;BME280;1639;42.804;23.342;2023-04-25T07:05:16;72105.81;;;-148.52;100.00
3254;BME280;1639;42.804;23.342;2023-04-25T07:07:41;72097.53;;;-148.52;100.00
3254;BME280;1639;42.804;23.342;2023-04-25T07:10:07;72091.31;;;-148.52;100.00
3254;BME280;1639;42.804;23.342;2023-04-25T07:12:32;72078.91;;;-148.52;100.00
3254;BME280;1639;42.804;23.342;2023-04-25T07:14:58;72081.00;;;-148.52;100.00
3254;BME280;1639;42.804;23.342;2023-04-25T07:17:23;72070.66;;;-148.52;100.00
3254;BME280;1639;42.804;23.342;2023-04-25T07:19:49;72056.16;;;-148.52;100.00
3254;BME280;1639;42.804;23.342;2023-04-25T07:22:14;72074.78;;;-148.52;100.00
3254;BME280;1639;42.804;23.342;2023-04-25T07:24:40;72066.50;;;-148.52;100.00
3254;BME280;1639;42.804;23.342;2023-04-25T07:27:05;72047.91;;;-148.52;100.00
3254;BME280;1639;42.804;23.342;2023-04-25T07:29:31;72010.69;;;-148.52;100.00
3254;BME280;1639;42.804;23.342;2023-04-25T07:31:56;71998.28;;;-148.52;100.00
3254;BME280;1639;42.804;23.342;2023-04-25T07:34:22;71979.66;;;-148.52;100.00
3254;BME280;1639;42.804;23.342;2023-04-25T07:36:47;71934.19;;;-148.52;100.00
3254;BME280;1639;42.804;23.342;2023-04-25T07:39:13;71905.22;;;-148.52;100.00
3254;BME280;1639;42.804;23.342;2023-04-25T07:41:38;71876.28;;;-148.52;100.00
3254;BME280;1639;42.804;23.342;2023-04-25T07:44:03;71863.88;;;-148.52;100.00
3254;BME280;1639;42.804;23.342;2023-04-25T07:46:29;71863.88;;;-148.52;100.00
3254;BME280;1639;42.804;23.342;2023-04-25T07:48:54;71870.09;;;-148.52;100.00
3254;BME280;1639;42.804;23.342;2023-04-25T07:51:20;71888.69;;;-148.52;100.00
3254;BME280;1639;42.804;23.342;2023-04-25T07:53:47;71884.56;;;-148.52;100.00
3254;BME280;1639;42.804;23.342;2023-04-25T07:56:12;71884.56;;;-148.52;100.00
3254;BME280;1639;42.804;23.342;2023-04-25T07:58:38;71919.72;;;-148.52;100.00
3254;BME280;1639;42.804;23.342;2023-04-25T08:01:03;71921.78;;;-148.52;100.00
3254;BME280;1639;42.804;23.342;2023-04-25T08:03:29;71927.97;;;-148.52;100.00
3254;BME280;1639;42.804;23.342;2023-04-25T08:05:54;71934.19;;;-148.52;100.00
3254;BME280;1639;42.804;23.342;2023-04-25T08:08:20;71944.53;;;-148.52;100.00
3254;BME280;1639;42.804;23.342;2023-04-25T08:10:46;71959.00;;;-148.52;100.00
3254;BME280;1639;42.804;23.342;2023-04-25T08:13:13;71954.84;;;-148.52;100.00
3254;BME280;1639;42.804;23.342;2023-04-25T08:15:38;71950.72;;;-148.52;100.00
3254;BME280;1639;42.804;23.342;2023-04-25T08:18:04;71946.59;;;-148.52;100.00
3254;BME280;1639;42.804;23.342;2023-04-25T08:20:30;71959.00;;;-148.52;100.00
3254;BME280;1639;42.804;23.342;2023-04-25T08:22:56;71954.84;;;-148.52;100.00
3254;BME280;1639;42.804;23.342;2023-04-25T08:25:21;71948.66;;;-148.52;100.00
3254;BME280;1639;42.804;23.342;2023-04-25T08:27:46;71946.59;;;-148.52;100.00
3254;BME280;1639;42.804;23.342;2023-04-25T08:30:12;71934.19;;;-148.52;100.00
3254;BME280;1639;42.804;23.342;2023-04-25T08:32:37;71927.97;;;-148.52;100.00
3254;BME280;1639;42.804;23.342;2023-04-25T08:35:04;71950.72;;;-148.52;100.00
3254;BME280;1639;42.804;23.342;2023-04-25T08:37:29;71961.06;;;-148.52;100.00
3254;BME280;1639;42.804;23.342;2023-04-25T08:39:54;71963.13;;;-148.52;100.00
3254;BME280;1639;42.804;23.342;2023-04-25T08:42:21;71979.66;;;-148.52;100.00
3254;BME280;1639;42.804;23.342;2023-04-25T08:44:48;71979.66;;;-148.52;100.00
3254;BME280;1639;42.804;23.342;2023-04-25T08:47:14;71971.41;;;-148.52;100.00
3254;BME280;1639;42.804;23.342;2023-04-25T08:49:45;71967.25;;;-148.52;100.00
3254;BME280;1639;42.804;23.342;2023-04-25T08:52:13;71938.31;;;-148.52;100.00
3254;BME280;1639;42.804;23.342;2023-04-25T08:54:42;71917.63;;;-148.52;100.00
3254;BME280;1639;42.804;23.342;2023-04-25T08:57:09;71859.75;;;-148.52;100.00
3254;BME280;1639;42.804;23.342;2023-04-25T08:59:35;71793.59;;;-148.52;100.00
3254;BME280;1639;42.804;23.342;2023-04-25T09:02:02;71748.09;;;-148.52;100.00
3254;BME280;1639;42.804;23.342;2023-04-25T09:04:31;71719.16;;;-148.52;100.00
3254;BME280;1639;42.804;23.342;2023-04-25T09:06:56;71715.00;;;-148.52;100.00
3254;BME280;1639;42.804;23.342;2023-04-25T09:09:23;71723.28;;;-148.52;100.00
3254;BME280;1639;42.804;23.342;2023-04-25T09:11:49;71746.03;;;-148.52;100.00
3254;BME280;1639;42.804;23.342;2023-04-25T09:14:20;71725.34;;;-148.52;100.00
3254;BME280;1639;42.804;23.342;2023-04-25T09:19:25;71706.75;;;-148.52;100.00
3254;BME280;1639;42.804;23.342;2023-04-25T09:21:53;71727.41;;;-148.52;100.00
3254;BME280;1639;42.804;23.342;2023-04-25T09:24:30;71795.66;;;-148.52;100.00
3254;BME280;1639;42.804;23.342;2023-04-25T09:26:56;71884.56;;;-148.52;100.00
3254;BME280;1639;42.804;23.342;2023-04-25T09:29:29;71901.09;;;-148.52;100.00
3254;BME280;1639;42.804;23.342;2023-04-25T09:34:40;71901.09;;;-148.52;100.00
3254;BME280;1639;42.804;23.342;2023-04-25T09:37:10;71896.97;;;-148.52;100.00
3254;BME280;1639;42.804;23.342;2023-04-25T09:39:37;71942.44;;;-148.52;100.00
3254;BME280;1639;42.804;23.342;2023-04-25T09:42:05;71963.13;;;-148.52;100.00
3254;BME280;1639;42.804;23.342;2023-04-25T09:44:31;71971.41;;;-148.52;100.00
3254;BME280;1639;42.804;23.342;2023-04-25T09:46:56;71905.22;;;-148.52;100.00
3254;BME280;1639;42.804;23.342;2023-04-25T09:49:22;71878.34;;;-148.52;100.00
3254;BME280;1639;42.804;23.342;2023-04-25T09:51:58;71818.38;;;-148.52;100.00
3254;BME280;1639;42.804;23.342;2023-04-25T09:54:25;71779.09;;;-148.52;100.00
3254;BME280;1639;42.804;23.342;2023-04-25T09:56:51;71756.38;;;-148.52;100.00
3254;BME280;1639;42.804;23.342;2023-04-25T09:59:21;71797.72;;;-148.52;65.65
3254;BME280;1639;42.804;23.342;2023-04-25T10:01:49;71723.28;;;-148.52;67.60
3254;BME280;1639;42.804;23.342;2023-04-25T10:04:19;71715.00;;;-148.52;62.67
3254;BME280;1639;42.804;23.342;2023-04-25T10:06:48;71677.78;;;-148.52;61.14
3254;BME280;1639;42.804;23.342;2023-04-25T10:09:14;71638.50;;;-148.52;58.06
3254;BME280;1639;42.804;23.342;2023-04-25T10:11:41;71586.81;;;-148.52;62.10
3254;BME280;1639;42.804;23.342;2023-04-25T10:14:06;71566.16;;;-148.52;57.19
3254;BME280;1639;42.804;23.342;2023-04-25T10:16:33;71615.78;;;-148.52;56.44
3254;BME280;1639;42.804;23.342;2023-04-25T10:18:58;71615.78;;;-148.52;59.21
3254;BME280;1639;42.804;23.342;2023-04-25T10:21:25;71636.44;;;-148.52;58.54
3254;BME280;1639;42.804;23.342;2023-04-25T10:23:53;71700.53;;;-148.52;58.92
3254;BME280;1639;42.804;23.342;2023-04-25T10:26:19;71781.19;;;-148.52;58.10
3254;BME280;1639;42.804;23.342;2023-04-25T10:28:58;71934.19;;;-148.52;59.92
3254;BME280;1639;42.804;23.342;2023-04-25T10:31:24;72000.34;;;-148.52;62.19
3254;BME280;1639;42.804;23.342;2023-04-25T10:33:50;72035.50;;;-148.52;63.91
3254;BME280;1639;42.804;23.342;2023-04-25T10:36:21;72095.47;;;-148.52;62.27
3254;BME280;1639;42.804;23.342;2023-04-25T10:38:48;72151.28;;;-148.52;65.08
3254;BME280;1639;42.804;23.342;2023-04-25T10:41:18;72182.31;;;-148.52;68.72
3254;BME280;1639;42.804;23.342;2023-04-25T10:43:44;72209.19;;;-148.52;74.10
3254;BME280;1639;42.804;23.342;2023-04-25T10:48:50;72213.31;;;-148.52;83.22
3254;BME280;1639;42.804;23.342;2023-04-25T10:51:21;72192.66;;;-148.52;81.07
3254;BME280;1639;42.804;23.342;2023-04-25T10:54:08;72159.56;;;-148.52;76.98
3254;BME280;1639;42.804;23.342;2023-04-25T10:56:39;72095.47;;;-148.52;82.98
3254;BME280;1639;42.804;23.342;2023-04-25T10:59:07;72062.38;;;-148.52;74.70
3254;BME280;1639;42.804;23.342;2023-04-25T11:01:49;72027.22;;;-148.52;72.29
3254;BME280;1639;42.804;23.342;2023-04-25T11:04:34;71994.13;;;-148.52;71.02
3254;BME280;1639;42.804;23.342;2023-04-25T11:09:33;71888.69;;;-148.52;67.61
3254;BME280;1639;42.804;23.342;2023-04-25T11:11:59;71837.00;;;-148.52;63.09
3254;BME280;1639;42.804;23.342;2023-04-25T11:14:26;71806.00;;;-148.52;57.99
3254;BME280;1639;42.804;23.342;2023-04-25T11:16:56;71781.19;;;-148.52;54.09
3254;BME280;1639;42.804;23.342;2023-04-25T11:19:22;71748.09;;;-148.52;54.91
3254;BME280;1639;42.804;23.342;2023-04-25T11:21:47;71725.34;;;-148.52;57.95
3254;BME280;1639;42.804;23.342;2023-04-25T11:24:13;71719.16;;;-148.52;48.85
3254;BME280;1639;42.804;23.342;2023-04-25T11:26:38;71698.47;;;-148.52;51.11
3254;BME280;1639;42.804;23.342;2023-04-25T11:29:06;71667.47;;;-148.52;52.23
3254;BME280;1639;42.804;23.342;2023-04-25T11:31:31;71626.09;;;-148.52;53.42
3254;BME280;1639;42.804;23.342;2023-04-25T11:33:57;71638.50;;;-148.52;51.15
3254;BME280;1639;42.804;23.342;2023-04-25T11:36:23;71659.19;;;-148.52;52.02
3254;BME280;1639;42.804;23.342;2023-04-25T11:38:50;71638.50;;;-148.52;51.34
3254;BME280;1639;42.804;23.342;2023-04-25T11:41:17;71603.38;;;-148.52;51.34
3254;BME280;1639;42.804;23.342;2023-04-25T11:43:43;71572.34;;;-148.52;52.59
3254;BME280;1639;42.804;23.342;2023-04-25T11:46:09;71541.34;;;-148.52;50.79
3254;BME280;1639;42.804;23.342;2023-04-25T11:48:41;71516.53;;;-148.52;51.34
3254;BME280;1639;42.804;23.342;2023-04-25T11:51:08;71485.53;;;-148.52;51.32
3254;BME280;1639;42.804;23.342;2023-04-25T11:53:35;71495.84;;;-148.52;48.76
3254;BME280;1639;42.804;23.342;2023-04-25T11:56:01;71504.13;;;-148.52;53.07
3254;BME280;1639;42.804;23.342;2023-04-25T11:58:27;71483.44;;;-148.52;53.48
3254;BME280;1639;42.804;23.342;2023-04-25T12:00:53;71452.44;;;-148.52;50.31
3254;BME280;1639;42.804;23.342;2023-04-25T12:03:19;71423.50;;;-148.52;49.92
3254;BME280;1639;42.804;23.342;2023-04-25T12:05:45;71433.84;;;-148.52;48.74
3254;BME280;1639;42.804;23.342;2023-04-25T12:08:14;71440.03;;;-148.52;49.55
3254;BME280;1639;42.804;23.342;2023-04-25T12:10:41;71454.50;;;-148.52;50.12
3254;BME280;1639;42.804;23.342;2023-04-25T12:13:37;71504.13;;;-148.52;49.28
3254;BME280;1639;42.804;23.342;2023-04-25T12:16:02;71549.63;;;-148.52;51.20
3254;BME280;1639;42.804;23.342;2023-04-25T12:18:28;71586.81;;;-148.52;52.29
3254;BME280;1639;42.804;23.342;2023-04-25T12:20:53;71648.84;;;-148.52;52.71
3254;BME280;1639;42.804;23.342;2023-04-25T12:23:28;71686.06;;;-148.52;54.64
3254;BME280;1639;42.804;23.342;2023-04-25T12:25:53;71766.69;;;-148.52;62.51
3254;BME280;1639;42.804;23.342;2023-04-25T12:28:25;71855.59;;;-148.52;68.02
3254;BME280;1639;42.804;23.342;2023-04-25T12:33:28;71965.19;;;-148.52;75.89
3254;BME280;1639;42.804;23.342;2023-04-25T12:35:54;72006.56;;;-148.52;83.26
3254;BME280;1639;42.804;23.342;2023-04-25T12:38:27;72004.47;;;-148.52;89.31
3254;BME280;1639;42.804;23.342;2023-04-25T12:40:54;72043.78;;;-148.52;83.05
3254;BME280;1639;42.804;23.342;2023-04-25T12:43:20;72033.44;;;-148.52;86.46
3254;BME280;1639;42.804;23.342;2023-04-25T12:45:50;72045.84;;;-148.52;84.03
3254;BME280;1639;42.804;23.342;2023-04-25T12:48:16;72031.38;;;-148.52;88.21
3254;BME280;1639;42.804;23.342;2023-04-25T12:50:42;72021.03;;;-148.52;89.45
3254;BME280;1639;42.804;23.342;2023-04-25T12:53:07;72008.63;;;-148.52;82.93